sensor_id;sensor_type;location;lat;lon;timestamp;temperature;humidity
74364;DHT22;62797;49.740;10.154;2022-12-18T00:00:31;-10.40;48.70
74364;DHT22;62797;49.740;10.154;2022-12-18T00:02:57;-10.50;48.00
74364;DHT22;62797;49.740;10.154;2022-12-18T00:05:22;-10.60;50.60
74364;DHT22;62797;49.740;10.154;2022-12-18T00:07:48;-10.50;50.20
74364;DHT22;62797;49.740;10.154;2022-12-18T00:10:13;-10.50;48.90
74364;DHT22;62797;49.740;10.154;2022-12-18T00:12:39;-10.50;49.70
74364;DHT22;62797;49.740;10.154;2022-12-18T00:15:05;-10.50;50.00
74364;DHT22;62797;49.740;10.154;2022-12-18T00:17:30;-10.50;48.60
74364;DHT22;62797;49.740;10.154;2022-12-18T00:19:56;-10.50;49.10
74364;DHT22;62797;49.740;10.154;2022-12-18T00:22:21;-10.60;49.70
74364;DHT22;62797;49.740;10.154;2022-12-18T00:24:47;-10.60;49.60
74364;DHT22;62797;49.740;10.154;2022-12-18T00:27:12;-10.60;48.00
74364;DHT22;62797;49.740;10.154;2022-12-18T00:29:38;-10.60;49.10
74364;DHT22;62797;49.740;10.154;2022-12-18T00:32:03;-10.60;50.00
74364;DHT22;62797;49.740;10.154;2022-12-18T00:34:29;-10.60;49.70
74364;DHT22;62797;49.740;10.154;2022-12-18T00:36:55;-10.60;49.10
74364;DHT22;62797;49.740;10.154;2022-12-18T00:39:20;-10.60;49.30
74364;DHT22;62797;49.740;10.154;2022-12-18T00:41:46;-10.60;48.60
74364;DHT22;62797;49.740;10.154;2022-12-18T00:44:30;-10.60;48.20
74364;DHT22;62797;49.740;10.154;2022-12-18T00:46:56;-10.60;50.20
74364;DHT22;62797;49.740;10.154;2022-12-18T00:49:21;-10.60;49.20
74364;DHT22;62797;49.740;10.154;2022-12-18T00:51:48;-10.60;48.60
74364;DHT22;62797;49.740;10.154;2022-12-18T00:54:14;-10.70;48.80
74364;DHT22;62797;49.740;10.154;2022-12-18T00:56:40;-10.70;49.00
74364;DHT22;62797;49.740;10.154;2022-12-18T00:59:05;-10.60;48.20
74364;DHT22;62797;49.740;10.154;2022-12-18T01:01:31;-10.60;48.00
74364;DHT22;62797;49.740;10.154;2022-12-18T01:03:58;-10.70;50.10
74364;DHT22;62797;49.740;10.154;2022-12-18T01:06:24;-10.60;51.00
74364;DHT22;62797;49.740;10.154;2022-12-18T01:08:49;-10.60;48.80
74364;DHT22;62797;49.740;10.154;2022-12-18T01:11:17;-10.60;49.00
74364;DHT22;62797;49.740;10.154;2022-12-18T01:13:44;-10.60;48.20
74364;DHT22;62797;49.740;10.154;2022-12-18T01:16:12;-10.70;48.30
74364;DHT22;62797;49.740;10.154;2022-12-18T01:18:37;-10.70;48.10
74364;DHT22;62797;49.740;10.154;2022-12-18T01:21:11;-10.70;47.40
74364;DHT22;62797;49.740;10.154;2022-12-18T01:23:37;-10.70;47.50
74364;DHT22;62797;49.740;10.154;2022-12-18T01:26:11;-10.70;47.60
74364;DHT22;62797;49.740;10.154;2022-12-18T01:28:37;-10.80;47.70
74364;DHT22;62797;49.740;10.154;2022-12-18T01:31:15;-10.80;47.20
74364;DHT22;62797;49.740;10.154;2022-12-18T01:33:41;-10.80;47.30
74364;DHT22;62797;49.740;10.154;2022-12-18T01:36:07;-10.80;47.40
74364;DHT22;62797;49.740;10.154;2022-12-18T01:38:32;-10.80;47.50
74364;DHT22;62797;49.740;10.154;2022-12-18T01:41:00;-10.80;49.30
74364;DHT22;62797;49.740;10.154;2022-12-18T01:43:45;-10.80;48.70
74364;DHT22;62797;49.740;10.154;2022-12-18T01:46:11;-10.70;47.70
74364;DHT22;62797;49.740;10.154;2022-12-18T01:48:37;-10.80;47.30
74364;DHT22;62797;49.740;10.154;2022-12-18T01:51:04;-10.80;49.70
74364;DHT22;62797;49.740;10.154;2022-12-18T01:53:31;-10.70;49.20
74364;DHT22;62797;49.740;10.154;2022-12-18T01:55:57;-10.70;48.20
74364;DHT22;62797;49.740;10.154;2022-12-18T01:58:58;-10.70;48.00
74364;DHT22;62797;49.740;10.154;2022-12-18T02:01:25;-10.80;47.70
74364;DHT22;62797;49.740;10.154;2022-12-18T02:03:52;-10.80;47.30
74364;DHT22;62797;49.740;10.154;2022-12-18T02:06:32;-10.80;48.80
74364;DHT22;62797;49.740;10.154;2022-12-18T02:11:38;-10.80;47.90
74364;DHT22;62797;49.740;10.154;2022-12-18T02:15:05;-10.80;49.30
74364;DHT22;62797;49.740;10.154;2022-12-18T02:17:51;-10.80;48.10
74364;DHT22;62797;49.740;10.154;2022-12-18T02:20:36;-10.80;48.50
74364;DHT22;62797;49.740;10.154;2022-12-18T02:26:19;-10.80;49.10
74364;DHT22;62797;49.740;10.154;2022-12-18T02:28:51;-10.80;49.30
74364;DHT22;62797;49.740;10.154;2022-12-18T02:31:22;-10.80;48.20
74364;DHT22;62797;49.740;10.154;2022-12-18T02:33:50;-10.80;49.70
74364;DHT22;62797;49.740;10.154;2022-12-18T02:36:17;-10.80;50.50
74364;DHT22;62797;49.740;10.154;2022-12-18T02:38:46;-10.80;49.80
74364;DHT22;62797;49.740;10.154;2022-12-18T02:41:13;-10.80;49.70
74364;DHT22;62797;49.740;10.154;2022-12-18T02:43:45;-10.80;49.60
74364;DHT22;62797;49.740;10.154;2022-12-18T02:52:05;-10.80;48.50
74364;DHT22;62797;49.740;10.154;2022-12-18T02:54:47;-10.90;48.10
74364;DHT22;62797;49.740;10.154;2022-12-18T02:57:30;-10.90;48.10
74364;DHT22;62797;49.740;10.154;2022-12-18T03:00:06;-11.00;47.70
74364;DHT22;62797;49.740;10.154;2022-12-18T03:05:30;-11.10;48.70
74364;DHT22;62797;49.740;10.154;2022-12-18T03:08:08;-11.10;48.90
74364;DHT22;62797;49.740;10.154;2022-12-18T03:10:45;-11.10;47.30
74364;DHT22;62797;49.740;10.154;2022-12-18T03:13:17;-11.10;47.70
74364;DHT22;62797;49.740;10.154;2022-12-18T03:15:49;-11.20;48.40
74364;DHT22;62797;49.740;10.154;2022-12-18T03:18:17;-11.20;48.10
74364;DHT22;62797;49.740;10.154;2022-12-18T03:20:47;-11.20;49.80
74364;DHT22;62797;49.740;10.154;2022-12-18T03:23:23;-11.20;49.00
74364;DHT22;62797;49.740;10.154;2022-12-18T03:25:52;-11.20;49.90
74364;DHT22;62797;49.740;10.154;2022-12-18T03:28:21;-11.20;49.20
74364;DHT22;62797;49.740;10.154;2022-12-18T03:30:51;-11.20;50.80
74364;DHT22;62797;49.740;10.154;2022-12-18T03:33:22;-11.10;50.30
74364;DHT22;62797;49.740;10.154;2022-12-18T03:35:49;-11.10;49.00
74364;DHT22;62797;49.740;10.154;2022-12-18T03:38:15;-11.10;48.70
74364;DHT22;62797;49.740;10.154;2022-12-18T03:40:59;-11.10;48.30
74364;DHT22;62797;49.740;10.154;2022-12-18T03:46:11;-11.20;50.20
74364;DHT22;62797;49.740;10.154;2022-12-18T03:48:46;-11.20;50.50
74364;DHT22;62797;49.740;10.154;2022-12-18T03:51:20;-11.20;48.30
74364;DHT22;62797;49.740;10.154;2022-12-18T03:53:59;-11.10;50.10
74364;DHT22;62797;49.740;10.154;2022-12-18T03:56:28;-11.10;50.90
74364;DHT22;62797;49.740;10.154;2022-12-18T03:58:55;-11.10;49.50
74364;DHT22;62797;49.740;10.154;2022-12-18T04:01:29;-11.10;48.70
74364;DHT22;62797;49.740;10.154;2022-12-18T04:03:56;-11.20;48.20
74364;DHT22;62797;49.740;10.154;2022-12-18T04:06:23;-11.20;49.10
74364;DHT22;62797;49.740;10.154;2022-12-18T04:08:49;-11.20;49.40
74364;DHT22;62797;49.740;10.154;2022-12-18T04:11:15;-11.20;49.10
74364;DHT22;62797;49.740;10.154;2022-12-18T04:13:42;-11.20;47.70
74364;DHT22;62797;49.740;10.154;2022-12-18T04:16:08;-11.20;48.10
74364;DHT22;62797;49.740;10.154;2022-12-18T04:18:35;-11.20;47.50
74364;DHT22;62797;49.740;10.154;2022-12-18T04:21:01;-11.30;48.20
74364;DHT22;62797;49.740;10.154;2022-12-18T04:23:27;-11.30;48.40
74364;DHT22;62797;49.740;10.154;2022-12-18T04:25:53;-11.30;49.90
74364;DHT22;62797;49.740;10.154;2022-12-18T04:28:19;-11.30;48.70
74364;DHT22;62797;49.740;10.154;2022-12-18T04:30:44;-11.30;47.90
74364;DHT22;62797;49.740;10.154;2022-12-18T04:33:11;-11.40;47.90
74364;DHT22;62797;49.740;10.154;2022-12-18T04:35:37;-11.40;47.00
74364;DHT22;62797;49.740;10.154;2022-12-18T04:38:02;-11.50;47.50
74364;DHT22;62797;49.740;10.154;2022-12-18T04:40:28;-11.40;47.80
74364;DHT22;62797;49.740;10.154;2022-12-18T04:42:53;-11.40;47.50
74364;DHT22;62797;49.740;10.154;2022-12-18T04:45:19;-11.40;47.90
74364;DHT22;62797;49.740;10.154;2022-12-18T04:47:44;-11.40;47.80
74364;DHT22;62797;49.740;10.154;2022-12-18T04:50:10;-11.50;48.00
74364;DHT22;62797;49.740;10.154;2022-12-18T04:52:35;-11.50;47.60
74364;DHT22;62797;49.740;10.154;2022-12-18T04:55:01;-11.50;48.90
74364;DHT22;62797;49.740;10.154;2022-12-18T04:57:26;-11.50;48.90
74364;DHT22;62797;49.740;10.154;2022-12-18T04:59:52;-11.50;47.50
74364;DHT22;62797;49.740;10.154;2022-12-18T05:02:18;-11.60;46.60
74364;DHT22;62797;49.740;10.154;2022-12-18T05:04:43;-11.60;48.20
74364;DHT22;62797;49.740;10.154;2022-12-18T05:07:10;-11.50;47.90
74364;DHT22;62797;49.740;10.154;2022-12-18T05:09:35;-11.50;47.10
74364;DHT22;62797;49.740;10.154;2022-12-18T05:12:01;-11.60;47.80
74364;DHT22;62797;49.740;10.154;2022-12-18T05:14:26;-11.60;48.80
74364;DHT22;62797;49.740;10.154;2022-12-18T05:16:54;-11.50;48.40
74364;DHT22;62797;49.740;10.154;2022-12-18T05:19:20;-11.50;49.20
74364;DHT22;62797;49.740;10.154;2022-12-18T05:21:45;-11.50;50.30
74364;DHT22;62797;49.740;10.154;2022-12-18T05:24:11;-11.40;51.90
74364;DHT22;62797;49.740;10.154;2022-12-18T05:26:37;-11.30;54.70
74364;DHT22;62797;49.740;10.154;2022-12-18T05:29:02;-11.10;56.80
74364;DHT22;62797;49.740;10.154;2022-12-18T05:31:28;-10.90;59.00
74364;DHT22;62797;49.740;10.154;2022-12-18T05:33:53;-10.70;59.30
74364;DHT22;62797;49.740;10.154;2022-12-18T05:36:19;-10.50;60.10
74364;DHT22;62797;49.740;10.154;2022-12-18T05:38:45;-10.30;60.70
74364;DHT22;62797;49.740;10.154;2022-12-18T05:41:10;-10.20;61.50
74364;DHT22;62797;49.740;10.154;2022-12-18T05:43:37;-10.10;61.30
74364;DHT22;62797;49.740;10.154;2022-12-18T05:46:05;-9.90;61.40
74364;DHT22;62797;49.740;10.154;2022-12-18T05:48:30;-9.80;61.40
74364;DHT22;62797;49.740;10.154;2022-12-18T05:50:56;-9.60;61.10
74364;DHT22;62797;49.740;10.154;2022-12-18T05:53:27;-9.50;61.10
74364;DHT22;62797;49.740;10.154;2022-12-18T05:55:53;-9.40;61.30
74364;DHT22;62797;49.740;10.154;2022-12-18T05:58:18;-9.30;61.70
74364;DHT22;62797;49.740;10.154;2022-12-18T06:00:45;-9.10;61.80
74364;DHT22;62797;49.740;10.154;2022-12-18T06:03:12;-9.00;61.50
74364;DHT22;62797;49.740;10.154;2022-12-18T06:05:42;-8.90;61.40
74364;DHT22;62797;49.740;10.154;2022-12-18T06:08:09;-8.80;61.30
74364;DHT22;62797;49.740;10.154;2022-12-18T06:10:35;-8.70;61.50
74364;DHT22;62797;49.740;10.154;2022-12-18T06:13:01;-8.50;60.80
74364;DHT22;62797;49.740;10.154;2022-12-18T06:15:27;-8.50;59.60
74364;DHT22;62797;49.740;10.154;2022-12-18T06:17:52;-8.50;58.60
74364;DHT22;62797;49.740;10.154;2022-12-18T06:20:18;-8.40;57.70
74364;DHT22;62797;49.740;10.154;2022-12-18T06:22:44;-8.40;58.20
74364;DHT22;62797;49.740;10.154;2022-12-18T06:25:09;-8.30;57.60
74364;DHT22;62797;49.740;10.154;2022-12-18T06:27:35;-8.30;56.60
74364;DHT22;62797;49.740;10.154;2022-12-18T06:30:03;-8.30;55.60
74364;DHT22;62797;49.740;10.154;2022-12-18T06:32:29;-8.40;54.80
74364;DHT22;62797;49.740;10.154;2022-12-18T06:34:54;-8.40;54.10
74364;DHT22;62797;49.740;10.154;2022-12-18T06:37:22;-8.40;54.00
74364;DHT22;62797;49.740;10.154;2022-12-18T06:39:51;-8.40;54.20
74364;DHT22;62797;49.740;10.154;2022-12-18T06:42:17;-8.40;54.10
74364;DHT22;62797;49.740;10.154;2022-12-18T06:44:42;-8.40;53.80
74364;DHT22;62797;49.740;10.154;2022-12-18T06:47:08;-8.30;53.30
74364;DHT22;62797;49.740;10.154;2022-12-18T06:49:33;-8.40;53.40
74364;DHT22;62797;49.740;10.154;2022-12-18T06:51:59;-8.30;53.60
74364;DHT22;62797;49.740;10.154;2022-12-18T06:54:24;-8.30;53.50
74364;DHT22;62797;49.740;10.154;2022-12-18T06:56:50;-8.30;52.60
74364;DHT22;62797;49.740;10.154;2022-12-18T06:59:15;-8.30;53.20
74364;DHT22;62797;49.740;10.154;2022-12-18T07:01:41;-8.30;53.30
74364;DHT22;62797;49.740;10.154;2022-12-18T07:04:07;-8.30;54.40
74364;DHT22;62797;49.740;10.154;2022-12-18T07:06:32;-8.30;54.20
74364;DHT22;62797;49.740;10.154;2022-12-18T07:08:58;-8.30;54.30
74364;DHT22;62797;49.740;10.154;2022-12-18T07:11:23;-8.20;53.70
74364;DHT22;62797;49.740;10.154;2022-12-18T07:13:49;-8.20;53.60
74364;DHT22;62797;49.740;10.154;2022-12-18T07:16:19;-8.20;53.30
74364;DHT22;62797;49.740;10.154;2022-12-18T07:18:45;-8.20;53.50
74364;DHT22;62797;49.740;10.154;2022-12-18T07:21:13;-8.20;54.70
74364;DHT22;62797;49.740;10.154;2022-12-18T07:23:39;-8.10;55.10
74364;DHT22;62797;49.740;10.154;2022-12-18T07:26:10;-8.00;54.40
74364;DHT22;62797;49.740;10.154;2022-12-18T07:28:37;-8.00;55.40
74364;DHT22;62797;49.740;10.154;2022-12-18T07:31:18;-7.90;55.10
74364;DHT22;62797;49.740;10.154;2022-12-18T07:33:45;-7.80;54.20
74364;DHT22;62797;49.740;10.154;2022-12-18T07:36:12;-7.80;54.70
74364;DHT22;62797;49.740;10.154;2022-12-18T07:38:38;-7.70;54.70
74364;DHT22;62797;49.740;10.154;2022-12-18T07:41:07;-7.70;55.30
74364;DHT22;62797;49.740;10.154;2022-12-18T07:43:33;-7.60;53.90
74364;DHT22;62797;49.740;10.154;2022-12-18T07:45:58;-7.50;53.90
74364;DHT22;62797;49.740;10.154;2022-12-18T07:48:24;-7.50;54.10
74364;DHT22;62797;49.740;10.154;2022-12-18T07:50:49;-7.50;54.90
74364;DHT22;62797;49.740;10.154;2022-12-18T07:53:15;-7.40;54.70
74364;DHT22;62797;49.740;10.154;2022-12-18T07:55:41;-7.40;54.70
74364;DHT22;62797;49.740;10.154;2022-12-18T07:58:07;-7.40;54.40
74364;DHT22;62797;49.740;10.154;2022-12-18T08:00:33;-7.30;54.80
74364;DHT22;62797;49.740;10.154;2022-12-18T08:02:59;-7.20;54.80
74364;DHT22;62797;49.740;10.154;2022-12-18T08:05:25;-7.10;55.20
74364;DHT22;62797;49.740;10.154;2022-12-18T08:07:51;-7.10;54.70
74364;DHT22;62797;49.740;10.154;2022-12-18T08:10:17;-7.00;54.70
74364;DHT22;62797;49.740;10.154;2022-12-18T08:12:42;-7.00;56.00
74364;DHT22;62797;49.740;10.154;2022-12-18T08:15:08;-7.00;55.20
74364;DHT22;62797;49.740;10.154;2022-12-18T08:17:35;-6.90;55.10
74364;DHT22;62797;49.740;10.154;2022-12-18T08:20:01;-6.80;55.50
74364;DHT22;62797;49.740;10.154;2022-12-18T08:22:26;-6.80;55.10
74364;DHT22;62797;49.740;10.154;2022-12-18T08:24:52;-6.70;55.30
74364;DHT22;62797;49.740;10.154;2022-12-18T08:27:17;-6.60;55.10
74364;DHT22;62797;49.740;10.154;2022-12-18T08:29:43;-6.60;55.60
74364;DHT22;62797;49.740;10.154;2022-12-18T08:32:09;-6.50;56.00
74364;DHT22;62797;49.740;10.154;2022-12-18T08:34:34;-6.40;54.80
74364;DHT22;62797;49.740;10.154;2022-12-18T08:37:00;-6.40;54.30
74364;DHT22;62797;49.740;10.154;2022-12-18T08:39:26;-6.30;54.90
74364;DHT22;62797;49.740;10.154;2022-12-18T08:41:53;-6.30;55.50
74364;DHT22;62797;49.740;10.154;2022-12-18T08:44:38;-6.20;55.20
74364;DHT22;62797;49.740;10.154;2022-12-18T08:47:04;-6.20;54.40
74364;DHT22;62797;49.740;10.154;2022-12-18T08:49:30;-6.20;55.10
74364;DHT22;62797;49.740;10.154;2022-12-18T08:51:56;-6.10;55.00
74364;DHT22;62797;49.740;10.154;2022-12-18T08:54:25;-6.00;55.00
74364;DHT22;62797;49.740;10.154;2022-12-18T08:56:51;-6.00;54.40
74364;DHT22;62797;49.740;10.154;2022-12-18T08:59:18;-5.90;55.20
74364;DHT22;62797;49.740;10.154;2022-12-18T09:01:44;-5.80;55.10
74364;DHT22;62797;49.740;10.154;2022-12-18T09:04:10;-5.70;55.30
74364;DHT22;62797;49.740;10.154;2022-12-18T09:06:36;-5.60;55.50
74364;DHT22;62797;49.740;10.154;2022-12-18T09:09:02;-5.50;55.70
74364;DHT22;62797;49.740;10.154;2022-12-18T09:11:29;-5.40;55.80
74364;DHT22;62797;49.740;10.154;2022-12-18T09:13:55;-5.30;55.60
74364;DHT22;62797;49.740;10.154;2022-12-18T09:16:21;-5.20;55.80
74364;DHT22;62797;49.740;10.154;2022-12-18T09:18:47;-5.10;55.10
74364;DHT22;62797;49.740;10.154;2022-12-18T09:21:14;-5.10;55.50
74364;DHT22;62797;49.740;10.154;2022-12-18T09:23:40;-5.00;54.00
74364;DHT22;62797;49.740;10.154;2022-12-18T09:26:06;-5.00;54.20
74364;DHT22;62797;49.740;10.154;2022-12-18T09:28:32;-5.00;55.00
74364;DHT22;62797;49.740;10.154;2022-12-18T09:30:58;-4.90;55.00
74364;DHT22;62797;49.740;10.154;2022-12-18T09:33:23;-4.80;55.40
74364;DHT22;62797;49.740;10.154;2022-12-18T09:35:49;-4.80;54.10
74364;DHT22;62797;49.740;10.154;2022-12-18T09:38:17;-4.70;54.90
74364;DHT22;62797;49.740;10.154;2022-12-18T09:40:52;-4.60;55.80
74364;DHT22;62797;49.740;10.154;2022-12-18T09:43:43;-4.50;55.30
74364;DHT22;62797;49.740;10.154;2022-12-18T09:46:17;-4.40;55.30
74364;DHT22;62797;49.740;10.154;2022-12-18T09:48:46;-4.40;55.10
74364;DHT22;62797;49.740;10.154;2022-12-18T09:51:25;-4.30;56.40
74364;DHT22;62797;49.740;10.154;2022-12-18T09:53:57;-4.10;56.40
74364;DHT22;62797;49.740;10.154;2022-12-18T09:56:25;-3.90;56.30
74364;DHT22;62797;49.740;10.154;2022-12-18T09:58:57;-3.80;56.10
74364;DHT22;62797;49.740;10.154;2022-12-18T10:01:25;-3.80;54.50
74364;DHT22;62797;49.740;10.154;2022-12-18T10:03:52;-3.70;55.30
74364;DHT22;62797;49.740;10.154;2022-12-18T10:06:35;-3.60;55.60
74364;DHT22;62797;49.740;10.154;2022-12-18T10:14:30;-3.40;54.20
74364;DHT22;62797;49.740;10.154;2022-12-18T10:19:41;-3.30;53.70
74364;DHT22;62797;49.740;10.154;2022-12-18T10:22:22;-3.20;53.70
74364;DHT22;62797;49.740;10.154;2022-12-18T10:27:27;-3.10;53.30
74364;DHT22;62797;49.740;10.154;2022-12-18T10:29:53;-3.10;52.70
74364;DHT22;62797;49.740;10.154;2022-12-18T10:32:30;-3.10;52.90
74364;DHT22;62797;49.740;10.154;2022-12-18T10:34:57;-2.90;53.00
74364;DHT22;62797;49.740;10.154;2022-12-18T10:37:26;-2.90;53.10
74364;DHT22;62797;49.740;10.154;2022-12-18T10:40:12;-2.80;52.70
74364;DHT22;62797;49.740;10.154;2022-12-18T10:42:38;-2.70;52.60
74364;DHT22;62797;49.740;10.154;2022-12-18T10:45:09;-2.70;52.30
74364;DHT22;62797;49.740;10.154;2022-12-18T10:47:35;-2.60;51.60
74364;DHT22;62797;49.740;10.154;2022-12-18T10:50:02;-2.50;51.80
74364;DHT22;62797;49.740;10.154;2022-12-18T10:52:28;-2.50;51.50
74364;DHT22;62797;49.740;10.154;2022-12-18T10:54:59;-2.40;52.60
74364;DHT22;62797;49.740;10.154;2022-12-18T10:57:34;-2.40;51.20
74364;DHT22;62797;49.740;10.154;2022-12-18T11:00:33;-2.30;51.80
74364;DHT22;62797;49.740;10.154;2022-12-18T11:03:01;-2.20;50.80
74364;DHT22;62797;49.740;10.154;2022-12-18T11:05:28;-2.10;50.90
74364;DHT22;62797;49.740;10.154;2022-12-18T11:07:54;-2.10;49.70
74364;DHT22;62797;49.740;10.154;2022-12-18T11:10:40;-2.10;49.60
74364;DHT22;62797;49.740;10.154;2022-12-18T11:13:20;-2.10;49.80
74364;DHT22;62797;49.740;10.154;2022-12-18T11:15:47;-2.20;49.40
74364;DHT22;62797;49.740;10.154;2022-12-18T11:18:20;-2.10;49.70
74364;DHT22;62797;49.740;10.154;2022-12-18T11:21:05;-2.10;49.20
74364;DHT22;62797;49.740;10.154;2022-12-18T11:23:34;-2.00;50.00
74364;DHT22;62797;49.740;10.154;2022-12-18T11:26:02;-1.90;49.40
74364;DHT22;62797;49.740;10.154;2022-12-18T11:31:28;-1.90;48.60
74364;DHT22;62797;49.740;10.154;2022-12-18T11:36:38;-1.80;48.50
74364;DHT22;62797;49.740;10.154;2022-12-18T11:41:56;-1.70;47.70
74364;DHT22;62797;49.740;10.154;2022-12-18T11:44:43;-1.70;47.80
74364;DHT22;62797;49.740;10.154;2022-12-18T11:49:51;-1.70;47.90
74364;DHT22;62797;49.740;10.154;2022-12-18T11:52:36;-1.60;47.40
74364;DHT22;62797;49.740;10.154;2022-12-18T11:55:15;-1.60;47.30
74364;DHT22;62797;49.740;10.154;2022-12-18T11:57:44;-1.50;47.20
74364;DHT22;62797;49.740;10.154;2022-12-18T12:00:15;-1.40;47.20
74364;DHT22;62797;49.740;10.154;2022-12-18T12:05:49;-1.20;47.30
74364;DHT22;62797;49.740;10.154;2022-12-18T12:14:01;-1.20;46.00
74364;DHT22;62797;49.740;10.154;2022-12-18T12:22:24;-1.00;45.60
74364;DHT22;62797;49.740;10.154;2022-12-18T12:35:08;-0.80;44.60
74364;DHT22;62797;49.740;10.154;2022-12-18T12:38:03;-0.80;44.20
74364;DHT22;62797;49.740;10.154;2022-12-18T12:40:33;-0.60;45.30
74364;DHT22;62797;49.740;10.154;2022-12-18T12:43:10;-0.60;43.80
74364;DHT22;62797;49.740;10.154;2022-12-18T12:48:14;-0.60;43.80
74364;DHT22;62797;49.740;10.154;2022-12-18T12:50:42;-0.60;44.50
74364;DHT22;62797;49.740;10.154;2022-12-18T12:53:09;-0.60;44.10
74364;DHT22;62797;49.740;10.154;2022-12-18T12:55:40;-0.50;43.50
74364;DHT22;62797;49.740;10.154;2022-12-18T13:01:12;-0.50;43.30
74364;DHT22;62797;49.740;10.154;2022-12-18T13:08:59;-0.50;43.80
74364;DHT22;62797;49.740;10.154;2022-12-18T13:11:54;-0.50;43.20
74364;DHT22;62797;49.740;10.154;2022-12-18T13:14:43;-0.50;43.70
74364;DHT22;62797;49.740;10.154;2022-12-18T13:19:42;-0.60;43.30
74364;DHT22;62797;49.740;10.154;2022-12-18T13:24:46;-0.70;43.20
74364;DHT22;62797;49.740;10.154;2022-12-18T13:40:59;-0.70;43.80
74364;DHT22;62797;49.740;10.154;2022-12-18T13:43:35;-0.80;43.80
74364;DHT22;62797;49.740;10.154;2022-12-18T13:51:41;-0.90;44.40
74364;DHT22;62797;49.740;10.154;2022-12-18T13:56:47;-0.90;44.30
74364;DHT22;62797;49.740;10.154;2022-12-18T13:59:20;-1.00;44.50
74364;DHT22;62797;49.740;10.154;2022-12-18T14:01:51;-1.10;44.90
74364;DHT22;62797;49.740;10.154;2022-12-18T14:06:53;-1.10;45.20
74364;DHT22;62797;49.740;10.154;2022-12-18T14:09:27;-1.20;45.30
74364;DHT22;62797;49.740;10.154;2022-12-18T14:11:54;-1.20;45.40
74364;DHT22;62797;49.740;10.154;2022-12-18T14:14:45;-1.20;45.40
74364;DHT22;62797;49.740;10.154;2022-12-18T14:17:13;-1.30;45.90
74364;DHT22;62797;49.740;10.154;2022-12-18T14:19:44;-1.20;45.70
74364;DHT22;62797;49.740;10.154;2022-12-18T14:22:22;-1.30;45.40
74364;DHT22;62797;49.740;10.154;2022-12-18T14:27:44;-1.40;45.60
74364;DHT22;62797;49.740;10.154;2022-12-18T14:30:30;-1.50;45.80
74364;DHT22;62797;49.740;10.154;2022-12-18T14:33:10;-1.50;46.00
74364;DHT22;62797;49.740;10.154;2022-12-18T14:35:41;-1.60;46.30
74364;DHT22;62797;49.740;10.154;2022-12-18T14:38:25;-1.60;46.30
74364;DHT22;62797;49.740;10.154;2022-12-18T14:40:57;-1.60;46.30
74364;DHT22;62797;49.740;10.154;2022-12-18T14:43:22;-1.70;46.60
74364;DHT22;62797;49.740;10.154;2022-12-18T14:45:49;-1.70;47.10
74364;DHT22;62797;49.740;10.154;2022-12-18T14:48:21;-1.80;47.10
74364;DHT22;62797;49.740;10.154;2022-12-18T14:51:05;-1.80;47.20
74364;DHT22;62797;49.740;10.154;2022-12-18T14:53:33;-1.90;47.30
74364;DHT22;62797;49.740;10.154;2022-12-18T14:55:59;-1.90;47.60
74364;DHT22;62797;49.740;10.154;2022-12-18T14:58:25;-2.00;47.90
74364;DHT22;62797;49.740;10.154;2022-12-18T15:00:50;-2.10;47.90
74364;DHT22;62797;49.740;10.154;2022-12-18T15:03:19;-2.10;48.30
74364;DHT22;62797;49.740;10.154;2022-12-18T15:05:45;-2.20;48.20
74364;DHT22;62797;49.740;10.154;2022-12-18T15:08:29;-2.30;48.50
74364;DHT22;62797;49.740;10.154;2022-12-18T15:10:54;-2.30;48.80
74364;DHT22;62797;49.740;10.154;2022-12-18T15:13:23;-2.40;48.70
74364;DHT22;62797;49.740;10.154;2022-12-18T15:15:50;-2.50;49.00
74364;DHT22;62797;49.740;10.154;2022-12-18T15:18:19;-2.50;50.20
74364;DHT22;62797;49.740;10.154;2022-12-18T15:20:53;-2.50;49.50
74364;DHT22;62797;49.740;10.154;2022-12-18T15:23:21;-2.60;49.80
74364;DHT22;62797;49.740;10.154;2022-12-18T15:26:01;-2.70;49.90
74364;DHT22;62797;49.740;10.154;2022-12-18T15:28:49;-2.70;50.30
74364;DHT22;62797;49.740;10.154;2022-12-18T15:33:43;-2.80;50.70
74364;DHT22;62797;49.740;10.154;2022-12-18T15:36:13;-2.80;51.00
74364;DHT22;62797;49.740;10.154;2022-12-18T15:38:39;-2.90;51.30
74364;DHT22;62797;49.740;10.154;2022-12-18T15:41:05;-2.90;51.40
74364;DHT22;62797;49.740;10.154;2022-12-18T15:43:31;-2.90;51.70
74364;DHT22;62797;49.740;10.154;2022-12-18T15:46:01;-2.90;51.60
74364;DHT22;62797;49.740;10.154;2022-12-18T15:48:26;-3.00;52.10
74364;DHT22;62797;49.740;10.154;2022-12-18T15:50:54;-3.00;51.80
74364;DHT22;62797;49.740;10.154;2022-12-18T15:53:23;-3.00;52.10
74364;DHT22;62797;49.740;10.154;2022-12-18T15:55:48;-3.00;51.70
74364;DHT22;62797;49.740;10.154;2022-12-18T15:58:33;-3.00;51.90
74364;DHT22;62797;49.740;10.154;2022-12-18T16:00:59;-3.00;52.40
74364;DHT22;62797;49.740;10.154;2022-12-18T16:03:25;-3.00;52.10
74364;DHT22;62797;49.740;10.154;2022-12-18T16:05:53;-3.00;52.60
74364;DHT22;62797;49.740;10.154;2022-12-18T16:08:19;-3.00;52.30
74364;DHT22;62797;49.740;10.154;2022-12-18T16:10:44;-3.00;52.30
74364;DHT22;62797;49.740;10.154;2022-12-18T16:13:11;-3.00;52.40
74364;DHT22;62797;49.740;10.154;2022-12-18T16:15:37;-3.00;52.30
74364;DHT22;62797;49.740;10.154;2022-12-18T16:18:03;-3.00;52.90
74364;DHT22;62797;49.740;10.154;2022-12-18T16:20:29;-3.00;52.80
74364;DHT22;62797;49.740;10.154;2022-12-18T16:22:54;-3.00;53.30
74364;DHT22;62797;49.740;10.154;2022-12-18T16:25:22;-3.00;53.70
74364;DHT22;62797;49.740;10.154;2022-12-18T16:27:48;-3.00;53.80
74364;DHT22;62797;49.740;10.154;2022-12-18T16:30:19;-3.00;53.60
74364;DHT22;62797;49.740;10.154;2022-12-18T16:32:45;-3.00;53.60
74364;DHT22;62797;49.740;10.154;2022-12-18T16:35:12;-2.90;53.60
74364;DHT22;62797;49.740;10.154;2022-12-18T16:37:38;-2.90;52.90
74364;DHT22;62797;49.740;10.154;2022-12-18T16:40:04;-2.90;52.70
74364;DHT22;62797;49.740;10.154;2022-12-18T16:42:29;-2.90;52.40
74364;DHT22;62797;49.740;10.154;2022-12-18T16:44:55;-2.90;52.90
74364;DHT22;62797;49.740;10.154;2022-12-18T16:47:20;-2.90;53.60
74364;DHT22;62797;49.740;10.154;2022-12-18T16:49:46;-3.00;53.30
74364;DHT22;62797;49.740;10.154;2022-12-18T16:52:15;-3.00;53.00
74364;DHT22;62797;49.740;10.154;2022-12-18T16:54:41;-3.00;53.10
74364;DHT22;62797;49.740;10.154;2022-12-18T16:57:08;-3.00;53.10
74364;DHT22;62797;49.740;10.154;2022-12-18T16:59:35;-3.00;53.10
74364;DHT22;62797;49.740;10.154;2022-12-18T17:02:04;-2.90;53.90
74364;DHT22;62797;49.740;10.154;2022-12-18T17:04:30;-2.90;53.60
74364;DHT22;62797;49.740;10.154;2022-12-18T17:06:56;-2.90;54.20
74364;DHT22;62797;49.740;10.154;2022-12-18T17:09:21;-2.90;53.80
74364;DHT22;62797;49.740;10.154;2022-12-18T17:11:50;-2.90;53.60